createdAt,value
2018-05-16T00:02:25.414Z,43.80
2018-05-16T00:07:27.977Z,43.80
2018-05-16T00:12:30.532Z,44.00
2018-05-16T00:17:33.230Z,44.10
2018-05-16T00:22:35.824Z,44.00
2018-05-16T00:27:38.393Z,44.00
2018-05-16T00:32:40.928Z,44.30
2018-05-16T00:37:43.540Z,44.40
2018-05-16T00:42:46.283Z,44.40
2018-05-16T00:47:48.870Z,44.40
2018-05-16T00:52:52.150Z,44.50
2018-05-16T00:57:54.743Z,44.50
2018-05-16T01:02:58.572Z,44.60
2018-05-16T01:08:01.145Z,44.60
2018-05-16T01:13:03.791Z,44.60
2018-05-16T01:18:06.594Z,44.60
2018-05-16T01:23:09.239Z,44.70
2018-05-16T01:28:11.893Z,44.80
2018-05-16T01:33:14.654Z,44.80
2018-05-16T01:38:18.116Z,44.90
2018-05-16T01:43:21.195Z,44.90
2018-05-16T01:48:23.750Z,44.90
2018-05-16T01:53:26.316Z,44.80
2018-05-16T01:58:28.863Z,44.80
2018-05-16T02:03:31.437Z,44.80
2018-05-16T02:08:34.139Z,44.90
2018-05-16T02:13:36.905Z,45.00
2018-05-16T02:18:39.563Z,45.10
2018-05-16T02:23:42.308Z,45.10
2018-05-16T02:28:45.189Z,45.00
2018-05-16T02:33:47.717Z,45.00
2018-05-16T02:38:50.266Z,45.00
2018-05-16T02:43:53.041Z,45.20
2018-05-16T02:48:55.648Z,45.20
2018-05-16T02:53:58.239Z,45.10
2018-05-16T02:59:01.657Z,45.10
2018-05-16T03:04:04.221Z,45.30
2018-05-16T03:09:06.781Z,45.20
2018-05-16T03:14:09.371Z,45.30
2018-05-16T03:19:11.933Z,45.20
2018-05-16T03:24:14.759Z,45.20
2018-05-16T03:29:17.279Z,45.30
2018-05-16T03:34:20.151Z,45.30
2018-05-16T03:39:23.792Z,45.40
2018-05-16T03:44:26.537Z,45.20
2018-05-16T03:49:29.062Z,45.20
2018-05-16T03:54:31.686Z,45.20
2018-05-16T03:59:46.211Z,45.10
2018-05-16T04:04:49.497Z,45.10
2018-05-16T04:09:52.526Z,45.10
2018-05-16T04:14:55.780Z,45.20
2018-05-16T04:19:58.330Z,45.90
2018-05-16T04:25:00.935Z,45.20
2018-05-16T04:30:03.664Z,45.20
2018-05-16T04:35:06.945Z,45.00
2018-05-16T04:40:09.648Z,45.00
2018-05-16T04:45:12.384Z,45.10
2018-05-16T04:50:16.290Z,45.10
2018-05-16T04:55:19.613Z,45.20
2018-05-16T05:00:23.894Z,45.20
2018-05-16T05:05:26.416Z,45.30
2018-05-16T05:10:29.040Z,45.30
2018-05-16T05:15:32.711Z,45.10
2018-05-16T05:20:35.265Z,45.10
2018-05-16T05:25:37.823Z,45.10
2018-05-16T05:30:40.486Z,45.00
2018-05-16T05:35:43.325Z,44.90
2018-05-16T05:40:45.916Z,44.70
2018-05-16T05:45:48.495Z,44.60
2018-05-16T05:50:51.884Z,44.60
2018-05-16T05:55:54.657Z,45.00
2018-05-16T06:00:58.181Z,44.90
2018-05-16T06:06:00.808Z,44.80
2018-05-16T06:11:03.558Z,44.60
2018-05-16T06:16:06.292Z,44.60
2018-05-16T06:21:08.983Z,44.40
2018-05-16T06:26:11.530Z,44.30
2018-05-16T06:31:14.141Z,44.20
2018-05-16T06:36:17.761Z,44.20
2018-05-16T06:41:21.139Z,44.10
2018-05-16T06:46:23.888Z,44.10
2018-05-16T06:51:26.467Z,43.80
2018-05-16T06:56:29.886Z,43.90
2018-05-16T07:01:32.603Z,43.90
2018-05-16T07:06:35.277Z,43.90
2018-05-16T07:11:37.881Z,44.10
2018-05-16T07:16:40.531Z,44.10
2018-05-16T07:21:43.225Z,44.10
2018-05-16T07:26:45.818Z,44.10
2018-05-16T07:31:48.786Z,44.20
2018-05-16T07:36:51.341Z,43.90
2018-05-16T07:41:53.963Z,44.00
2018-05-16T07:46:57.400Z,44.00
2018-05-16T07:51:59.953Z,44.10
2018-05-16T07:57:02.624Z,44.00
2018-05-16T08:02:05.205Z,44.00
2018-05-16T08:07:07.892Z,43.90
2018-05-16T08:12:10.521Z,43.90
2018-05-16T08:17:14.380Z,44.00
2018-05-16T08:22:17.815Z,45.30
2018-05-16T08:27:20.342Z,45.30
2018-05-16T08:32:22.872Z,46.70
2018-05-16T08:37:26.311Z,47.60
2018-05-16T08:42:29.621Z,46.10
2018-05-16T08:47:33.052Z,45.90
2018-05-16T08:52:35.628Z,45.90
2018-05-16T08:57:38.167Z,46.60
2018-05-16T09:02:41.393Z,46.40
2018-05-16T09:07:43.974Z,46.00
2018-05-16T09:12:46.555Z,46.00
2018-05-16T09:17:49.215Z,46.20
2018-05-16T09:22:52.625Z,46.10
2018-05-16T09:27:55.445Z,46.10
2018-05-16T09:32:58.737Z,46.60
2018-05-16T09:38:02.574Z,46.70
2018-05-16T09:43:05.994Z,46.70
2018-05-16T09:48:10.304Z,46.40
2018-05-16T09:53:12.930Z,46.40
2018-05-16T09:58:16.485Z,47.10
2018-05-16T10:03:19.141Z,47.10
2018-05-16T10:08:22.943Z,46.00
2018-05-16T10:13:25.743Z,46.00
2018-05-16T10:18:28.389Z,45.80
2018-05-16T10:23:30.960Z,46.10
2018-05-16T10:28:33.633Z,45.90
2018-05-16T10:33:36.260Z,45.90
2018-05-16T10:38:38.847Z,45.90
2018-05-16T10:43:41.804Z,45.70
2018-05-16T10:48:44.362Z,45.70
2018-05-16T10:53:47.716Z,45.80
2018-05-16T10:58:50.529Z,45.80
2018-05-16T11:03:53.164Z,45.80
2018-05-16T11:08:55.739Z,45.70
2018-05-16T11:13:58.355Z,45.80
2018-05-16T11:19:01.131Z,45.60
2018-05-16T11:24:03.671Z,45.60
2018-05-16T11:29:06.985Z,45.50
2018-05-16T11:34:09.508Z,45.50
2018-05-16T11:39:12.464Z,45.50
2018-05-16T11:44:15.032Z,45.50
2018-05-16T11:49:17.730Z,45.50
2018-05-16T11:54:21.112Z,45.50
2018-05-16T11:59:23.929Z,45.40
2018-05-16T12:04:27.108Z,45.40
2018-05-16T12:09:29.762Z,45.40
2018-05-16T12:14:33.122Z,45.40
2018-05-16T12:19:35.829Z,45.30
2018-05-16T12:24:38.408Z,45.30
2018-05-16T12:29:40.979Z,45.20
2018-05-16T12:34:45.123Z,45.20
2018-05-16T12:39:47.831Z,45.10
2018-05-16T12:44:50.516Z,45.10
2018-05-16T12:49:53.058Z,45.10
2018-05-16T12:54:55.586Z,45.00
2018-05-16T12:59:58.231Z,45.10
2018-05-16T13:05:00.838Z,45.10
2018-05-16T13:10:04.018Z,45.00
2018-05-16T13:15:06.539Z,44.90
2018-05-16T13:20:09.812Z,44.90
2018-05-16T13:25:12.635Z,44.90
2018-05-16T13:30:15.176Z,44.90
2018-05-16T13:35:17.778Z,44.90
2018-05-16T13:40:20.731Z,44.80
2018-05-16T13:45:23.404Z,44.90
2018-05-16T13:50:26.464Z,44.80
2018-05-16T13:55:29.026Z,44.80
2018-05-16T14:00:31.779Z,44.70
2018-05-16T14:05:35.110Z,44.60
2018-05-16T14:10:37.895Z,44.60
2018-05-16T14:15:40.934Z,44.70
2018-05-16T14:20:43.769Z,44.60
2018-05-16T14:25:46.418Z,44.60
2018-05-16T14:30:49.012Z,45.40
2018-05-16T14:35:52.494Z,44.60
2018-05-16T14:40:56.466Z,44.60
2018-05-16T14:45:59.132Z,44.60
2018-05-16T14:51:01.835Z,44.50
2018-05-16T14:56:04.526Z,44.50
2018-05-16T15:01:07.310Z,44.50
2018-05-16T15:06:10.678Z,44.50
2018-05-16T15:11:13.201Z,44.40
2018-05-16T15:16:16.549Z,44.50
2018-05-16T15:21:19.269Z,44.50
2018-05-16T15:26:21.942Z,44.50
2018-05-16T15:31:24.570Z,44.50
2018-05-16T15:36:27.237Z,44.40
2018-05-16T15:41:30.555Z,44.50
2018-05-16T15:46:33.951Z,44.50
2018-05-16T15:51:36.783Z,44.40
2018-05-16T15:56:39.372Z,44.40
2018-05-16T16:01:42.791Z,44.40
2018-05-16T16:06:45.357Z,44.40
2018-05-16T16:11:47.956Z,44.40
2018-05-16T16:16:51.279Z,44.40
2018-05-16T16:21:54.594Z,44.40
2018-05-16T16:26:57.146Z,44.40
2018-05-16T16:31:59.831Z,44.30
2018-05-16T16:37:02.644Z,44.30
2018-05-16T16:42:05.243Z,44.40
2018-05-16T16:47:07.842Z,44.30
2018-05-16T16:52:10.431Z,44.30
2018-05-16T16:57:13.294Z,44.40
2018-05-16T17:02:15.832Z,44.30
2018-05-16T17:07:18.495Z,44.30
2018-05-16T17:12:21.038Z,44.30
2018-05-16T17:17:23.605Z,44.40
2018-05-16T17:22:26.160Z,44.30
2018-05-16T17:27:28.880Z,44.20
2018-05-16T17:32:31.653Z,44.30
2018-05-16T17:37:34.995Z,44.30
2018-05-16T17:42:37.721Z,44.30
2018-05-16T17:47:40.256Z,44.20
2018-05-16T17:52:42.963Z,44.40
2018-05-16T17:57:45.635Z,44.30
2018-05-16T18:02:48.205Z,44.40
2018-05-16T18:07:51.002Z,44.30
2018-05-16T18:18:29.628Z,44.50
2018-05-16T18:23:33.765Z,44.50
2018-05-16T18:28:36.394Z,44.50
2018-05-16T18:33:39.116Z,44.60
2018-05-16T18:38:41.769Z,44.50
2018-05-16T18:43:44.456Z,45.10
2018-05-16T18:48:47.040Z,44.60
2018-05-16T18:53:50.098Z,44.70
2018-05-16T18:58:52.630Z,44.70
2018-05-16T19:03:55.140Z,44.80
2018-05-16T19:09:03.787Z,45.00
2018-05-16T19:14:06.618Z,45.10
2018-05-16T19:19:10.000Z,45.20
2018-05-16T19:24:12.877Z,45.20
2018-05-16T19:29:15.394Z,45.30
2018-05-16T19:34:18.058Z,45.30
2018-05-16T19:39:20.643Z,45.30
2018-05-16T19:44:23.239Z,45.40
2018-05-16T19:49:25.924Z,45.40
2018-05-16T19:54:28.578Z,46.00
2018-05-16T19:59:31.156Z,45.40
2018-05-16T20:04:33.718Z,45.40
2018-05-16T20:09:37.268Z,45.40
2018-05-16T20:14:40.540Z,45.40
2018-05-16T20:19:43.070Z,45.40
2018-05-16T20:24:45.860Z,45.40
2018-05-16T20:29:49.151Z,45.30
2018-05-16T20:34:53.105Z,45.40
2018-05-16T20:39:55.905Z,45.50
2018-05-16T20:44:59.259Z,45.50
2018-05-16T20:50:02.514Z,45.50
2018-05-16T20:55:06.377Z,45.50
2018-05-16T21:00:09.673Z,45.40
2018-05-16T21:05:12.419Z,45.40
2018-05-16T21:10:15.771Z,45.30
2018-05-16T21:15:18.511Z,45.30
2018-05-16T21:20:21.233Z,45.30
2018-05-16T21:25:23.830Z,45.30
2018-05-16T21:30:26.577Z,45.30
2018-05-16T21:35:29.310Z,45.20
2018-05-16T21:40:31.902Z,45.20
2018-05-16T21:45:34.465Z,45.20
2018-05-16T21:50:37.796Z,45.20
2018-05-16T21:55:41.173Z,45.20
2018-05-16T22:00:43.962Z,45.10
2018-05-16T22:05:47.121Z,45.20
2018-05-16T22:10:49.678Z,45.10
2018-05-16T22:15:52.261Z,45.10
2018-05-16T22:20:54.967Z,45.10
2018-05-16T22:25:57.770Z,45.10
2018-05-16T22:31:05.896Z,45.10
2018-05-16T22:36:14.199Z,45.10
2018-05-16T22:41:22.348Z,45.10
2018-05-16T22:46:25.002Z,45.00
2018-05-16T22:51:27.973Z,45.00
2018-05-16T22:56:30.687Z,45.00
2018-05-16T23:01:33.312Z,45.00
2018-05-16T23:06:35.905Z,45.00
2018-05-16T23:11:38.488Z,45.00
2018-05-16T23:16:41.186Z,45.00
2018-05-16T23:21:43.775Z,45.00
2018-05-16T23:26:47.018Z,45.00
2018-05-16T23:31:49.677Z,45.00
2018-05-16T23:36:52.280Z,45.00
2018-05-16T23:41:55.509Z,45.00
2018-05-16T23:46:58.710Z,45.00
2018-05-16T23:52:01.234Z,45.00
2018-05-16T23:57:03.859Z,45.00
